sensor_id;sensor_type;location;lat;lon;timestamp;pressure;altitude;pressure_sealevel;temperature;humidity
56604;BME280;42486;47.478;19.036;2023-04-05T00:00:32;100520.62;;;1.62;53.19
56604;BME280;42486;47.478;19.036;2023-04-05T00:03:35;100516.50;;;1.56;53.38
56604;BME280;42486;47.478;19.036;2023-04-05T00:06:38;100518.47;;;1.49;53.15
56604;BME280;42486;47.478;19.036;2023-04-05T00:09:45;100519.19;;;1.53;55.63
56604;BME280;42486;47.478;19.036;2023-04-05T00:12:49;100522.72;;;1.50;54.32
56604;BME280;42486;47.478;19.036;2023-04-05T00:15:52;100504.94;;;1.43;54.14
56604;BME280;42486;47.478;19.036;2023-04-05T00:18:55;100511.87;;;1.41;54.61
56604;BME280;42486;47.478;19.036;2023-04-05T00:22:00;100504.31;;;1.36;54.85
56604;BME280;42486;47.478;19.036;2023-04-05T00:25:03;100500.94;;;1.34;54.21
56604;BME280;42486;47.478;19.036;2023-04-05T00:28:06;100509.62;;;1.31;54.42
56604;BME280;42486;47.478;19.036;2023-04-05T00:31:09;100498.59;;;1.28;54.79
56604;BME280;42486;47.478;19.036;2023-04-05T00:34:12;100501.91;;;1.31;55.66
56604;BME280;42486;47.478;19.036;2023-04-05T00:37:14;100507.97;;;1.29;55.81
56604;BME280;42486;47.478;19.036;2023-04-05T00:40:17;100508.19;;;1.23;55.85
56604;BME280;42486;47.478;19.036;2023-04-05T00:43:19;100507.41;;;1.21;55.67
56604;BME280;42486;47.478;19.036;2023-04-05T00:46:22;100503.03;;;1.23;56.83
56604;BME280;42486;47.478;19.036;2023-04-05T00:49:25;100502.38;;;1.16;55.91
56604;BME280;42486;47.478;19.036;2023-04-05T00:52:27;100500.66;;;1.17;56.77
56604;BME280;42486;47.478;19.036;2023-04-05T00:55:32;100511.94;;;1.13;55.84
56604;BME280;42486;47.478;19.036;2023-04-05T00:58:35;100509.47;;;1.09;56.13
56604;BME280;42486;47.478;19.036;2023-04-05T01:01:37;100510.34;;;1.08;56.00
56604;BME280;42486;47.478;19.036;2023-04-05T01:04:43;100503.62;;;1.04;55.60
56604;BME280;42486;47.478;19.036;2023-04-05T01:07:53;100501.91;;;1.05;56.42
56604;BME280;42486;47.478;19.036;2023-04-05T01:11:00;100500.28;;;1.01;55.84
56604;BME280;42486;47.478;19.036;2023-04-05T01:14:05;100502.94;;;0.99;57.18
56604;BME280;42486;47.478;19.036;2023-04-05T01:17:07;100503.03;;;0.96;57.38
56604;BME280;42486;47.478;19.036;2023-04-05T01:20:10;100504.75;;;0.96;58.32
56604;BME280;42486;47.478;19.036;2023-04-05T01:23:25;100496.28;;;0.92;57.42
56604;BME280;42486;47.478;19.036;2023-04-05T01:26:38;100497.22;;;0.90;57.69
56604;BME280;42486;47.478;19.036;2023-04-05T01:30:02;100494.66;;;0.90;58.88
56604;BME280;42486;47.478;19.036;2023-04-05T01:33:14;100492.16;;;0.88;59.46
56604;BME280;42486;47.478;19.036;2023-04-05T01:39:21;100493.00;;;0.88;59.44
56604;BME280;42486;47.478;19.036;2023-04-05T01:42:24;100487.25;;;0.80;59.66
56604;BME280;42486;47.478;19.036;2023-04-05T01:45:27;100483.91;;;0.77;60.34
56604;BME280;42486;47.478;19.036;2023-04-05T01:48:30;100486.44;;;0.78;62.08
56604;BME280;42486;47.478;19.036;2023-04-05T01:51:32;100481.50;;;0.72;58.97
56604;BME280;42486;47.478;19.036;2023-04-05T01:54:35;100484.25;;;0.66;59.87
56604;BME280;42486;47.478;19.036;2023-04-05T01:57:38;100479.97;;;0.67;59.35
56604;BME280;42486;47.478;19.036;2023-04-05T02:00:40;100479.16;;;0.64;59.06
56604;BME280;42486;47.478;19.036;2023-04-05T02:03:44;100484.22;;;0.68;59.78
56604;BME280;42486;47.478;19.036;2023-04-05T02:06:47;100481.56;;;0.69;60.21
56604;BME280;42486;47.478;19.036;2023-04-05T02:09:49;100483.28;;;0.70;59.51
56604;BME280;42486;47.478;19.036;2023-04-05T02:12:52;100477.22;;;0.71;58.87
56604;BME280;42486;47.478;19.036;2023-04-05T02:15:55;100482.56;;;0.65;59.02
56604;BME280;42486;47.478;19.036;2023-04-05T02:18:58;100486.72;;;0.69;59.55
56604;BME280;42486;47.478;19.036;2023-04-05T02:22:03;100479.88;;;0.70;59.69
56604;BME280;42486;47.478;19.036;2023-04-05T02:25:06;100476.69;;;0.61;59.54
56604;BME280;42486;47.478;19.036;2023-04-05T02:28:12;100477.69;;;0.56;59.13
56604;BME280;42486;47.478;19.036;2023-04-05T02:31:15;100471.81;;;0.52;60.10
56604;BME280;42486;47.478;19.036;2023-04-05T02:34:18;100475.28;;;0.51;60.75
56604;BME280;42486;47.478;19.036;2023-04-05T02:37:20;100474.59;;;0.44;60.29
56604;BME280;42486;47.478;19.036;2023-04-05T02:40:23;100467.00;;;0.41;60.68
56604;BME280;42486;47.478;19.036;2023-04-05T02:43:26;100468.03;;;0.36;60.88
56604;BME280;42486;47.478;19.036;2023-04-05T02:46:29;100473.91;;;0.39;60.51
56604;BME280;42486;47.478;19.036;2023-04-05T02:49:32;100477.28;;;0.41;62.14
56604;BME280;42486;47.478;19.036;2023-04-05T02:52:34;100465.47;;;0.34;60.09
56604;BME280;42486;47.478;19.036;2023-04-05T02:55:38;100469.91;;;0.29;61.16
56604;BME280;42486;47.478;19.036;2023-04-05T02:58:43;100467.44;;;0.26;61.26
56604;BME280;42486;47.478;19.036;2023-04-05T03:01:45;100462.41;;;0.23;61.29
56604;BME280;42486;47.478;19.036;2023-04-05T03:04:50;100464.25;;;0.18;61.92
56604;BME280;42486;47.478;19.036;2023-04-05T03:07:54;100468.59;;;0.16;64.22
56604;BME280;42486;47.478;19.036;2023-04-05T03:10:57;100467.81;;;0.14;61.92
56604;BME280;42486;47.478;19.036;2023-04-05T03:14:00;100466.22;;;0.10;63.11
56604;BME280;42486;47.478;19.036;2023-04-05T03:17:03;100461.91;;;0.10;62.22
56604;BME280;42486;47.478;19.036;2023-04-05T03:20:06;100470.47;;;0.11;64.21
56604;BME280;42486;47.478;19.036;2023-04-05T03:23:19;100468.97;;;0.04;63.98
56604;BME280;42486;47.478;19.036;2023-04-05T03:26:22;100473.19;;;0.05;62.52
56604;BME280;42486;47.478;19.036;2023-04-05T03:29:29;100475.94;;;-0.02;63.99
56604;BME280;42486;47.478;19.036;2023-04-05T03:32:32;100476.84;;;-0.03;62.92
56604;BME280;42486;47.478;19.036;2023-04-05T03:35:34;100477.81;;;-0.07;64.50
56604;BME280;42486;47.478;19.036;2023-04-05T03:38:37;100481.19;;;-0.05;64.24
56604;BME280;42486;47.478;19.036;2023-04-05T03:41:43;100484.69;;;-0.09;65.14
56604;BME280;42486;47.478;19.036;2023-04-05T03:44:51;100480.50;;;-0.11;64.35
56604;BME280;42486;47.478;19.036;2023-04-05T03:47:54;100485.81;;;-0.17;64.67
56604;BME280;42486;47.478;19.036;2023-04-05T03:50:57;100482.41;;;-0.18;65.75
56604;BME280;42486;47.478;19.036;2023-04-05T03:54:00;100484.03;;;-0.15;64.34
56604;BME280;42486;47.478;19.036;2023-04-05T03:57:03;100482.41;;;-0.18;65.02
56604;BME280;42486;47.478;19.036;2023-04-05T04:00:07;100489.28;;;-0.20;65.27
56604;BME280;42486;47.478;19.036;2023-04-05T04:03:17;100491.75;;;-0.15;66.64
56604;BME280;42486;47.478;19.036;2023-04-05T04:06:20;100497.81;;;-0.18;65.49
56604;BME280;42486;47.478;19.036;2023-04-05T04:09:23;100492.81;;;-0.24;64.68
56604;BME280;42486;47.478;19.036;2023-04-05T04:12:26;100495.25;;;-0.19;66.55
56604;BME280;42486;47.478;19.036;2023-04-05T04:15:29;100502.13;;;-0.20;66.24
56604;BME280;42486;47.478;19.036;2023-04-05T04:18:33;100496.19;;;-0.22;66.35
56604;BME280;42486;47.478;19.036;2023-04-05T04:21:35;100502.22;;;-0.23;67.25
56604;BME280;42486;47.478;19.036;2023-04-05T04:24:40;100501.37;;;-0.24;66.04
56604;BME280;42486;47.478;19.036;2023-04-05T04:27:47;100496.34;;;-0.28;66.12
56604;BME280;42486;47.478;19.036;2023-04-05T04:30:52;100501.37;;;-0.24;66.80
56604;BME280;42486;47.478;19.036;2023-04-05T04:33:55;100494.53;;;-0.25;67.35
56604;BME280;42486;47.478;19.036;2023-04-05T04:36:58;100496.88;;;-0.15;68.71
56604;BME280;42486;47.478;19.036;2023-04-05T04:40:02;100501.63;;;-0.02;65.64
56604;BME280;42486;47.478;19.036;2023-04-05T04:43:10;100500.63;;;0.04;63.96
56604;BME280;42486;47.478;19.036;2023-04-05T04:46:18;100501.41;;;0.06;64.89
56604;BME280;42486;47.478;19.036;2023-04-05T04:49:24;100493.34;;;0.18;64.70
56604;BME280;42486;47.478;19.036;2023-04-05T04:52:28;100505.16;;;0.26;61.93
56604;BME280;42486;47.478;19.036;2023-04-05T04:55:31;100506.66;;;0.33;62.10
56604;BME280;42486;47.478;19.036;2023-04-05T04:58:36;100503.16;;;0.35;60.02
56604;BME280;42486;47.478;19.036;2023-04-05T05:01:39;100503.91;;;0.39;59.62
56604;BME280;42486;47.478;19.036;2023-04-05T05:04:45;100513.06;;;0.48;58.89
56604;BME280;42486;47.478;19.036;2023-04-05T05:07:48;100515.31;;;0.58;58.61
56604;BME280;42486;47.478;19.036;2023-04-05T05:10:51;100516.69;;;0.70;57.99
56604;BME280;42486;47.478;19.036;2023-04-05T05:13:54;100519.69;;;0.84;56.98
56604;BME280;42486;47.478;19.036;2023-04-05T05:16:57;100511.59;;;0.97;56.71
56604;BME280;42486;47.478;19.036;2023-04-05T05:20:03;100513.75;;;1.09;57.14
56604;BME280;42486;47.478;19.036;2023-04-05T05:23:12;100521.34;;;1.14;56.09
56604;BME280;42486;47.478;19.036;2023-04-05T05:26:16;100523.06;;;1.40;55.18
56604;BME280;42486;47.478;19.036;2023-04-05T05:29:19;100525.06;;;1.57;54.10
56604;BME280;42486;47.478;19.036;2023-04-05T05:32:22;100531.13;;;2.06;53.37
56604;BME280;42486;47.478;19.036;2023-04-05T05:35:26;100536.03;;;2.37;52.27
56604;BME280;42486;47.478;19.036;2023-04-05T05:38:29;100529.88;;;2.63;52.21
56604;BME280;42486;47.478;19.036;2023-04-05T05:41:32;100532.66;;;2.80;50.85
56604;BME280;42486;47.478;19.036;2023-04-05T05:44:34;100534.31;;;2.81;50.14
56604;BME280;42486;47.478;19.036;2023-04-05T05:47:37;100527.84;;;2.71;49.83
56604;BME280;42486;47.478;19.036;2023-04-05T05:50:40;100532.31;;;3.12;49.19
56604;BME280;42486;47.478;19.036;2023-04-05T05:53:43;100533.44;;;4.27;46.37
56604;BME280;42486;47.478;19.036;2023-04-05T05:56:46;100536.06;;;6.23;42.31
56604;BME280;42486;47.478;19.036;2023-04-05T05:59:49;100533.28;;;7.37;39.25
56604;BME280;42486;47.478;19.036;2023-04-05T06:02:52;100534.50;;;7.46;37.93
56604;BME280;42486;47.478;19.036;2023-04-05T06:05:56;100547.16;;;9.10;35.36
56604;BME280;42486;47.478;19.036;2023-04-05T06:08:59;100542.37;;;9.95;32.27
56604;BME280;42486;47.478;19.036;2023-04-05T06:12:02;100545.16;;;9.13;33.17
56604;BME280;42486;47.478;19.036;2023-04-05T06:15:07;100538.97;;;9.29;32.97
56604;BME280;42486;47.478;19.036;2023-04-05T06:18:11;100539.34;;;7.82;34.75
56604;BME280;42486;47.478;19.036;2023-04-05T06:21:14;100539.66;;;7.62;35.37
56604;BME280;42486;47.478;19.036;2023-04-05T06:24:18;100547.03;;;8.84;34.45
56604;BME280;42486;47.478;19.036;2023-04-05T06:27:22;100546.47;;;9.33;32.44
56604;BME280;42486;47.478;19.036;2023-04-05T06:30:25;100545.87;;;8.47;33.50
56604;BME280;42486;47.478;19.036;2023-04-05T06:33:28;100549.56;;;8.71;34.94
56604;BME280;42486;47.478;19.036;2023-04-05T06:36:31;100546.75;;;9.68;32.69
56604;BME280;42486;47.478;19.036;2023-04-05T06:39:35;100551.34;;;9.78;31.47
56604;BME280;42486;47.478;19.036;2023-04-05T06:42:38;100556.94;;;11.46;30.03
56604;BME280;42486;47.478;19.036;2023-04-05T06:45:44;100564.66;;;11.36;29.15
56604;BME280;42486;47.478;19.036;2023-04-05T06:48:47;100562.13;;;12.62;28.08
56604;BME280;42486;47.478;19.036;2023-04-05T06:51:51;100563.28;;;15.00;25.74
56604;BME280;42486;47.478;19.036;2023-04-05T06:54:56;100572.09;;;16.15;23.73
56604;BME280;42486;47.478;19.036;2023-04-05T06:58:00;100577.03;;;15.32;24.71
56604;BME280;42486;47.478;19.036;2023-04-05T07:01:08;100565.13;;;16.89;24.41
56604;BME280;42486;47.478;19.036;2023-04-05T07:04:11;100559.72;;;16.81;22.74
56604;BME280;42486;47.478;19.036;2023-04-05T07:07:14;100567.59;;;16.90;22.34
56604;BME280;42486;47.478;19.036;2023-04-05T07:10:20;100567.91;;;17.41;20.95
56604;BME280;42486;47.478;19.036;2023-04-05T07:13:23;100561.97;;;16.76;21.65
56604;BME280;42486;47.478;19.036;2023-04-05T07:16:27;100567.88;;;15.66;22.20
56604;BME280;42486;47.478;19.036;2023-04-05T07:19:30;100556.91;;;12.17;25.84
56604;BME280;42486;47.478;19.036;2023-04-05T07:22:33;100560.03;;;11.16;27.69
56604;BME280;42486;47.478;19.036;2023-04-05T07:25:40;100543.50;;;9.65;30.64
56604;BME280;42486;47.478;19.036;2023-04-05T07:28:43;100549.94;;;8.51;32.69
56604;BME280;42486;47.478;19.036;2023-04-05T07:31:47;100548.91;;;11.60;28.17
56604;BME280;42486;47.478;19.036;2023-04-05T07:34:50;100556.06;;;11.34;28.15
56604;BME280;42486;47.478;19.036;2023-04-05T07:37:54;100554.47;;;13.25;26.10
56604;BME280;42486;47.478;19.036;2023-04-05T07:40:57;100561.91;;;13.52;25.31
56604;BME280;42486;47.478;19.036;2023-04-05T07:44:01;100550.94;;;11.09;26.38
56604;BME280;42486;47.478;19.036;2023-04-05T07:47:04;100548.19;;;8.23;31.39
56604;BME280;42486;47.478;19.036;2023-04-05T07:50:07;100541.41;;;6.69;35.57
56604;BME280;42486;47.478;19.036;2023-04-05T07:53:13;100546.47;;;6.06;37.96
56604;BME280;42486;47.478;19.036;2023-04-05T07:56:16;100536.97;;;5.71;37.20
56604;BME280;42486;47.478;19.036;2023-04-05T07:59:21;100537.94;;;4.43;40.51
56604;BME280;42486;47.478;19.036;2023-04-05T08:02:24;100532.25;;;4.91;41.32
56604;BME280;42486;47.478;19.036;2023-04-05T08:05:30;100524.06;;;4.25;40.07
56604;BME280;42486;47.478;19.036;2023-04-05T08:08:33;100532.41;;;4.12;41.35
56604;BME280;42486;47.478;19.036;2023-04-05T08:11:36;100527.84;;;4.93;40.09
56604;BME280;42486;47.478;19.036;2023-04-05T08:14:39;100521.72;;;5.30;39.46
56604;BME280;42486;47.478;19.036;2023-04-05T08:17:42;100527.06;;;5.62;39.85
56604;BME280;42486;47.478;19.036;2023-04-05T08:21:03;100533.31;;;5.58;40.19
56604;BME280;42486;47.478;19.036;2023-04-05T08:24:06;100537.28;;;5.48;38.46
56604;BME280;42486;47.478;19.036;2023-04-05T08:27:10;100536.41;;;5.13;39.71
56604;BME280;42486;47.478;19.036;2023-04-05T08:30:13;100527.91;;;5.63;39.69
56604;BME280;42486;47.478;19.036;2023-04-05T08:33:17;100526.78;;;5.51;39.71
56604;BME280;42486;47.478;19.036;2023-04-05T08:36:20;100527.12;;;5.78;38.33
56604;BME280;42486;47.478;19.036;2023-04-05T08:39:26;100525.50;;;6.10;40.50
56604;BME280;42486;47.478;19.036;2023-04-05T08:42:30;100528.37;;;6.22;37.61
56604;BME280;42486;47.478;19.036;2023-04-05T08:45:37;100524.44;;;6.14;37.45
56604;BME280;42486;47.478;19.036;2023-04-05T08:48:43;100523.12;;;6.06;37.67
56604;BME280;42486;47.478;19.036;2023-04-05T08:51:49;100514.34;;;5.58;38.93
56604;BME280;42486;47.478;19.036;2023-04-05T08:54:52;100505.13;;;6.20;41.85
56604;BME280;42486;47.478;19.036;2023-04-05T08:57:56;100512.34;;;6.47;37.91
56604;BME280;42486;47.478;19.036;2023-04-05T09:01:00;100505.28;;;6.49;37.75
56604;BME280;42486;47.478;19.036;2023-04-05T09:07:41;100510.41;;;6.66;36.86
56604;BME280;42486;47.478;19.036;2023-04-05T09:10:45;100504.16;;;6.54;37.48
56604;BME280;42486;47.478;19.036;2023-04-05T09:13:51;100507.87;;;6.65;36.90
56604;BME280;42486;47.478;19.036;2023-04-05T09:16:53;100501.19;;;6.29;38.70
56604;BME280;42486;47.478;19.036;2023-04-05T09:19:57;100506.88;;;6.51;38.42
56604;BME280;42486;47.478;19.036;2023-04-05T09:23:00;100503.81;;;6.60;38.67
56604;BME280;42486;47.478;19.036;2023-04-05T09:26:19;100500.09;;;6.65;38.13
56604;BME280;42486;47.478;19.036;2023-04-05T09:29:27;100503.88;;;6.59;38.58
56604;BME280;42486;47.478;19.036;2023-04-05T09:32:30;100502.44;;;6.69;39.68
56604;BME280;42486;47.478;19.036;2023-04-05T09:35:35;100503.00;;;7.06;39.67
56604;BME280;42486;47.478;19.036;2023-04-05T09:38:45;100494.06;;;6.96;38.36
56604;BME280;42486;47.478;19.036;2023-04-05T09:42:06;100492.41;;;7.39;37.60
56604;BME280;42486;47.478;19.036;2023-04-05T09:45:20;100490.19;;;7.03;37.73
56604;BME280;42486;47.478;19.036;2023-04-05T09:48:45;100487.84;;;7.28;37.81
56604;BME280;42486;47.478;19.036;2023-04-05T09:51:48;100482.78;;;7.41;36.88
56604;BME280;42486;47.478;19.036;2023-04-05T09:54:52;100482.88;;;7.10;37.28
56604;BME280;42486;47.478;19.036;2023-04-05T09:57:58;100481.88;;;7.12;37.73
56604;BME280;42486;47.478;19.036;2023-04-05T10:01:02;100474.37;;;7.66;37.37
56604;BME280;42486;47.478;19.036;2023-04-05T10:04:23;100485.34;;;7.86;35.89
56604;BME280;42486;47.478;19.036;2023-04-05T10:07:26;100473.63;;;7.64;36.66
56604;BME280;42486;47.478;19.036;2023-04-05T10:10:29;100465.13;;;7.77;37.62
56604;BME280;42486;47.478;19.036;2023-04-05T10:13:33;100471.34;;;7.74;34.00
56604;BME280;42486;47.478;19.036;2023-04-05T10:16:37;100467.78;;;7.61;35.63
56604;BME280;42486;47.478;19.036;2023-04-05T10:20:05;100469.66;;;7.73;34.75
56604;BME280;42486;47.478;19.036;2023-04-05T10:23:30;100470.84;;;7.53;35.89
56604;BME280;42486;47.478;19.036;2023-04-05T10:26:58;100461.88;;;7.87;35.12
56604;BME280;42486;47.478;19.036;2023-04-05T10:30:07;100460.94;;;7.74;35.07
56604;BME280;42486;47.478;19.036;2023-04-05T10:33:18;100464.53;;;8.00;36.31
56604;BME280;42486;47.478;19.036;2023-04-05T10:39:26;100453.78;;;8.06;39.36
56604;BME280;42486;47.478;19.036;2023-04-05T10:42:41;100449.00;;;8.27;36.82
56604;BME280;42486;47.478;19.036;2023-04-05T10:45:46;100450.94;;;8.38;35.84
56604;BME280;42486;47.478;19.036;2023-04-05T10:51:57;100454.28;;;8.40;35.22
56604;BME280;42486;47.478;19.036;2023-04-05T10:55:00;100446.56;;;8.24;34.91
56604;BME280;42486;47.478;19.036;2023-04-05T10:58:04;100443.13;;;8.24;34.17
56604;BME280;42486;47.478;19.036;2023-04-05T11:01:07;100442.22;;;8.25;36.29
56604;BME280;42486;47.478;19.036;2023-04-05T11:04:17;100442.91;;;7.85;36.91
56604;BME280;42486;47.478;19.036;2023-04-05T11:07:19;100441.75;;;8.18;36.81
56604;BME280;42486;47.478;19.036;2023-04-05T11:10:23;100442.47;;;8.34;35.36
56604;BME280;42486;47.478;19.036;2023-04-05T11:13:46;100443.53;;;8.18;34.40
56604;BME280;42486;47.478;19.036;2023-04-05T11:16:53;100440.72;;;8.21;37.08
56604;BME280;42486;47.478;19.036;2023-04-05T11:20:02;100438.25;;;8.19;35.03
56604;BME280;42486;47.478;19.036;2023-04-05T11:23:09;100439.69;;;8.52;36.61
56604;BME280;42486;47.478;19.036;2023-04-05T11:26:13;100436.44;;;8.88;35.12
56604;BME280;42486;47.478;19.036;2023-04-05T11:29:15;100435.31;;;8.92;34.95
56604;BME280;42486;47.478;19.036;2023-04-05T11:32:19;100427.44;;;8.40;35.33
56604;BME280;42486;47.478;19.036;2023-04-05T11:35:23;100426.81;;;8.63;36.86
56604;BME280;42486;47.478;19.036;2023-04-05T11:38:25;100432.22;;;8.60;35.81
56604;BME280;42486;47.478;19.036;2023-04-05T11:41:31;100429.69;;;8.58;34.59
56604;BME280;42486;47.478;19.036;2023-04-05T11:44:48;100433.59;;;7.81;34.09
56604;BME280;42486;47.478;19.036;2023-04-05T11:47:53;100426.53;;;8.12;33.98
56604;BME280;42486;47.478;19.036;2023-04-05T11:50:59;100419.87;;;8.35;32.01
56604;BME280;42486;47.478;19.036;2023-04-05T11:54:02;100420.91;;;8.47;31.92
56604;BME280;42486;47.478;19.036;2023-04-05T11:57:06;100417.66;;;8.70;33.23
56604;BME280;42486;47.478;19.036;2023-04-05T12:00:14;100404.53;;;8.72;33.99
56604;BME280;42486;47.478;19.036;2023-04-05T12:03:17;100408.88;;;8.98;32.77
56604;BME280;42486;47.478;19.036;2023-04-05T12:06:24;100408.16;;;8.96;32.18
56604;BME280;42486;47.478;19.036;2023-04-05T12:09:28;100408.16;;;9.09;32.11
56604;BME280;42486;47.478;19.036;2023-04-05T12:12:32;100401.91;;;9.12;32.54
56604;BME280;42486;47.478;19.036;2023-04-05T12:15:39;100403.69;;;9.11;32.01
56604;BME280;42486;47.478;19.036;2023-04-05T12:18:43;100399.03;;;9.42;32.33
56604;BME280;42486;47.478;19.036;2023-04-05T12:21:46;100396.81;;;9.36;32.12
56604;BME280;42486;47.478;19.036;2023-04-05T12:24:49;100399.53;;;9.21;31.34
56604;BME280;42486;47.478;19.036;2023-04-05T12:27:53;100392.22;;;9.26;30.98
56604;BME280;42486;47.478;19.036;2023-04-05T12:30:55;100386.50;;;9.34;31.12
56604;BME280;42486;47.478;19.036;2023-04-05T12:33:59;100387.84;;;9.53;29.54
56604;BME280;42486;47.478;19.036;2023-04-05T12:37:02;100380.84;;;9.27;31.12
56604;BME280;42486;47.478;19.036;2023-04-05T12:40:05;100378.34;;;9.13;30.60
56604;BME280;42486;47.478;19.036;2023-04-05T12:43:08;100390.03;;;9.20;30.72
56604;BME280;42486;47.478;19.036;2023-04-05T12:46:11;100376.81;;;9.23;29.57
56604;BME280;42486;47.478;19.036;2023-04-05T12:49:18;100384.41;;;9.26;28.69
56604;BME280;42486;47.478;19.036;2023-04-05T12:52:20;100375.09;;;9.22;28.25
56604;BME280;42486;47.478;19.036;2023-04-05T12:55:24;100382.94;;;9.48;30.52
56604;BME280;42486;47.478;19.036;2023-04-05T12:58:34;100381.38;;;9.71;29.90
56604;BME280;42486;47.478;19.036;2023-04-05T13:01:37;100371.34;;;9.65;29.84
56604;BME280;42486;47.478;19.036;2023-04-05T13:04:41;100373.44;;;9.60;29.80
56604;BME280;42486;47.478;19.036;2023-04-05T13:07:44;100365.91;;;9.68;29.47
56604;BME280;42486;47.478;19.036;2023-04-05T13:10:48;100356.31;;;9.68;31.84
56604;BME280;42486;47.478;19.036;2023-04-05T13:13:50;100357.88;;;9.71;28.68
56604;BME280;42486;47.478;19.036;2023-04-05T13:16:53;100350.97;;;9.83;27.66
56604;BME280;42486;47.478;19.036;2023-04-05T13:19:57;100349.94;;;9.73;29.82
56604;BME280;42486;47.478;19.036;2023-04-05T13:23:01;100354.53;;;9.82;29.81
56604;BME280;42486;47.478;19.036;2023-04-05T13:26:06;100345.25;;;9.65;29.97
56604;BME280;42486;47.478;19.036;2023-04-05T13:29:09;100348.00;;;9.25;30.81
56604;BME280;42486;47.478;19.036;2023-04-05T13:32:13;100360.44;;;9.47;32.04
56604;BME280;42486;47.478;19.036;2023-04-05T13:35:16;100350.91;;;9.59;29.67
56604;BME280;42486;47.478;19.036;2023-04-05T13:38:19;100340.25;;;9.62;32.24
56604;BME280;42486;47.478;19.036;2023-04-05T13:41:22;100344.09;;;9.82;29.89
56604;BME280;42486;47.478;19.036;2023-04-05T13:44:25;100338.00;;;9.81;30.64
56604;BME280;42486;47.478;19.036;2023-04-05T13:47:28;100342.00;;;9.87;30.47
56604;BME280;42486;47.478;19.036;2023-04-05T13:50:32;100340.84;;;9.78;31.66
56604;BME280;42486;47.478;19.036;2023-04-05T13:53:34;100332.53;;;9.97;30.21
56604;BME280;42486;47.478;19.036;2023-04-05T13:56:37;100326.72;;;10.18;30.53
56604;BME280;42486;47.478;19.036;2023-04-05T13:59:40;100328.59;;;10.28;30.29
56604;BME280;42486;47.478;19.036;2023-04-05T14:02:43;100327.22;;;9.62;30.17
56604;BME280;42486;47.478;19.036;2023-04-05T14:05:46;100322.75;;;9.51;30.13
56604;BME280;42486;47.478;19.036;2023-04-05T14:08:52;100329.13;;;9.34;31.19
56604;BME280;42486;47.478;19.036;2023-04-05T14:11:59;100330.38;;;9.41;31.44
56604;BME280;42486;47.478;19.036;2023-04-05T14:15:05;100327.44;;;9.33;30.29
56604;BME280;42486;47.478;19.036;2023-04-05T14:18:08;100329.03;;;9.10;31.03
56604;BME280;42486;47.478;19.036;2023-04-05T14:21:12;100328.31;;;9.34;31.12
56604;BME280;42486;47.478;19.036;2023-04-05T14:24:15;100331.84;;;9.45;30.55
56604;BME280;42486;47.478;19.036;2023-04-05T14:27:18;100325.59;;;9.22;33.22
56604;BME280;42486;47.478;19.036;2023-04-05T14:30:27;100324.22;;;9.30;31.83
56604;BME280;42486;47.478;19.036;2023-04-05T14:33:31;100330.09;;;9.20;30.81
56604;BME280;42486;47.478;19.036;2023-04-05T14:36:35;100325.37;;;8.87;31.83
56604;BME280;42486;47.478;19.036;2023-04-05T14:39:38;100322.91;;;8.58;32.59
56604;BME280;42486;47.478;19.036;2023-04-05T14:42:41;100318.75;;;8.43;31.89
56604;BME280;42486;47.478;19.036;2023-04-05T14:45:50;100316.97;;;8.44;32.55
56604;BME280;42486;47.478;19.036;2023-04-05T14:48:54;100322.37;;;8.26;33.03
56604;BME280;42486;47.478;19.036;2023-04-05T14:51:57;100328.59;;;8.38;33.19
56604;BME280;42486;47.478;19.036;2023-04-05T14:55:01;100331.75;;;8.43;32.14
56604;BME280;42486;47.478;19.036;2023-04-05T14:58:03;100318.53;;;8.32;32.22
56604;BME280;42486;47.478;19.036;2023-04-05T15:01:06;100318.41;;;8.48;32.70
56604;BME280;42486;47.478;19.036;2023-04-05T15:04:11;100321.53;;;8.40;33.55
56604;BME280;42486;47.478;19.036;2023-04-05T15:07:14;100327.09;;;8.34;32.68
56604;BME280;42486;47.478;19.036;2023-04-05T15:10:17;100322.59;;;8.23;32.49
56604;BME280;42486;47.478;19.036;2023-04-05T15:13:21;100320.38;;;8.17;32.92
56604;BME280;42486;47.478;19.036;2023-04-05T15:16:25;100323.19;;;8.14;33.56
56604;BME280;42486;47.478;19.036;2023-04-05T15:19:27;100322.37;;;8.41;34.47
56604;BME280;42486;47.478;19.036;2023-04-05T15:22:32;100330.94;;;8.55;33.12
56604;BME280;42486;47.478;19.036;2023-04-05T15:25:34;100332.25;;;8.48;33.04
56604;BME280;42486;47.478;19.036;2023-04-05T15:28:37;100333.50;;;8.43;32.37
56604;BME280;42486;47.478;19.036;2023-04-05T15:31:40;100324.44;;;8.48;33.00
56604;BME280;42486;47.478;19.036;2023-04-05T15:34:43;100322.31;;;8.55;33.00
56604;BME280;42486;47.478;19.036;2023-04-05T15:37:46;100330.19;;;8.53;32.25
56604;BME280;42486;47.478;19.036;2023-04-05T15:40:49;100329.91;;;8.58;33.83
56604;BME280;42486;47.478;19.036;2023-04-05T15:43:53;100332.09;;;8.51;32.90
56604;BME280;42486;47.478;19.036;2023-04-05T15:46:56;100329.31;;;8.40;34.55
56604;BME280;42486;47.478;19.036;2023-04-05T15:49:59;100328.28;;;8.43;33.54
56604;BME280;42486;47.478;19.036;2023-04-05T15:53:02;100337.88;;;8.42;32.05
56604;BME280;42486;47.478;19.036;2023-04-05T15:56:04;100336.31;;;8.40;32.69
56604;BME280;42486;47.478;19.036;2023-04-05T15:59:08;100325.53;;;8.31;32.62
56604;BME280;42486;47.478;19.036;2023-04-05T16:02:11;100337.91;;;8.28;32.64
56604;BME280;42486;47.478;19.036;2023-04-05T16:05:15;100343.06;;;8.15;33.66
56604;BME280;42486;47.478;19.036;2023-04-05T16:08:17;100334.44;;;8.14;33.68
56604;BME280;42486;47.478;19.036;2023-04-05T16:11:20;100342.72;;;8.07;33.63
56604;BME280;42486;47.478;19.036;2023-04-05T16:14:23;100343.88;;;7.88;32.32